Time;durP1;ratioP1;P1;durP2;ratioP2;P2;SDS_P1;SDS_P2;PMS_P1;PMS_P2;Temp;Humidity;BMP_temperature;BMP_pressure;BME280_temperature;BME280_humidity;BME280_pressure;Samples;Min_cycle;Max_cycle;Signal;HPM_P1;HPM_P2
2024/04/17 00:01:12;;;;;;;3.92;0.63;;;;;;;13.53;100.00;97389.19;5476956;26;20021;-92
2024/04/17 00:03:38;;;;;;;1.38;0.63;;;;;;;13.68;100.00;97403.44;5476126;26;20006;-92
2024/04/17 00:06:04;;;;;;;2.95;0.43;;;;;;;13.81;100.00;97406.22;5473132;26;20025;-91
2024/04/17 00:08:30;;;;;;;3.78;0.77;;;;;;;13.80;100.00;97399.16;5474170;26;20001;-93
2024/04/17 00:10:56;;;;;;;1.52;0.40;;;;;;;13.74;100.00;97400.38;5476101;26;20050;-92
2024/04/17 00:13:22;;;;;;;1.52;0.43;;;;;;;13.73;100.00;97396.88;5471570;26;20014;-93
2024/04/17 00:15:49;;;;;;;1.23;0.60;;;;;;;13.82;100.00;97394.59;5470894;26;20001;-93
2024/04/17 00:18:18;;;;;;;2.58;0.60;;;;;;;13.43;100.00;97393.41;5467667;26;20019;-91
2024/04/17 00:20:44;;;;;;;2.63;0.80;;;;;;;12.76;100.00;97272.88;5482911;26;20005;-92
2024/04/17 00:23:10;;;;;;;1.67;0.77;;;;;;;12.10;100.00;97266.91;5471177;26;20006;-91
2024/04/17 00:25:36;;;;;;;2.65;0.68;;;;;;;12.47;100.00;97355.41;5471018;26;20006;-91
2024/04/17 00:28:02;;;;;;;1.27;0.93;;;;;;;12.65;100.00;97367.69;5473077;26;20025;-91
2024/04/17 00:30:28;;;;;;;2.88;1.02;;;;;;;12.62;100.00;97383.00;5464028;26;20013;-92
2024/04/17 00:32:53;;;;;;;3.58;0.80;;;;;;;12.65;100.00;97348.19;5476348;26;20054;-93
2024/04/17 00:35:22;;;;;;;2.17;1.30;;;;;;;12.76;100.00;97364.41;5475407;26;20353;-92
2024/04/17 00:37:48;;;;;;;3.85;1.02;;;;;;;12.85;100.00;97393.22;5466682;26;20042;-91
2024/04/17 00:40:14;;;;;;;2.85;1.23;;;;;;;12.68;100.00;97382.66;5480491;26;20016;-94
2024/04/17 00:42:40;;;;;;;2.08;0.68;;;;;;;12.38;100.00;97339.94;5469909;26;20462;-93
2024/04/17 00:45:06;;;;;;;1.10;0.40;;;;;;;12.41;100.00;97339.78;5477652;26;20006;-91
2024/04/17 00:47:33;;;;;;;2.17;0.43;;;;;;;12.80;100.00;97383.78;5474235;26;20037;-91
2024/04/17 00:49:59;;;;;;;1.90;0.65;;;;;;;12.72;100.00;97358.38;5478869;26;20017;-92
2024/04/17 00:52:27;;;;;;;1.75;1.08;;;;;;;13.13;100.00;97379.09;5474999;26;20352;-90
2024/04/17 00:54:53;;;;;;;4.13;0.73;;;;;;;12.53;100.00;97317.72;5476793;26;20005;-91
2024/04/17 00:57:21;;;;;;;3.42;0.95;;;;;;;12.83;100.00;97360.41;5472498;26;20018;-91
2024/04/17 00:59:48;;;;;;;5.07;0.90;;;;;;;12.95;100.00;97349.03;5481340;26;20006;-92
2024/04/17 01:02:14;;;;;;;1.45;0.73;;;;;;;12.82;100.00;97312.50;5471126;26;20006;-92
2024/04/17 01:04:40;;;;;;;2.47;0.77;;;;;;;12.87;100.00;97334.44;5483976;26;20005;-93
2024/04/17 01:07:06;;;;;;;4.47;0.93;;;;;;;12.63;100.00;97366.94;5498908;26;20045;-92
2024/04/17 01:09:35;;;;;;;5.80;1.23;;;;;;;12.45;100.00;97362.66;5499029;26;20446;-93
2024/04/17 01:12:01;;;;;;;3.63;1.02;;;;;;;11.59;100.00;97261.72;5476663;26;20061;-93
2024/04/17 01:14:27;;;;;;;2.58;0.73;;;;;;;11.88;100.00;97293.91;5471096;26;20339;-91
2024/04/17 01:16:53;;;;;;;4.25;0.93;;;;;;;12.09;100.00;97302.50;5474924;26;20006;-92
2024/04/17 01:19:19;;;;;;;1.38;0.68;;;;;;;12.45;100.00;97374.19;5476566;26;20014;-91
2024/04/17 01:21:45;;;;;;;0.93;0.68;;;;;;;12.08;100.00;97306.97;5481321;26;20017;-92
2024/04/17 01:24:14;;;;;;;2.22;0.77;;;;;;;12.43;100.00;97352.06;5478568;26;20009;-92
2024/04/17 01:26:40;;;;;;;2.40;1.08;;;;;;;12.27;100.00;97353.88;5474014;26;20006;-91
2024/04/17 01:29:07;;;;;;;1.95;0.60;;;;;;;11.94;100.00;97277.56;5473377;26;20014;-92
2024/04/17 01:31:33;;;;;;;2.63;0.68;;;;;;;12.27;100.00;97330.78;5473225;26;20047;-92
2024/04/17 01:33:59;;;;;;;1.60;0.70;;;;;;;12.63;100.00;97400.75;5472870;26;20009;-92
2024/04/17 01:36:25;;;;;;;2.25;1.00;;;;;;;12.15;100.00;97311.97;5474044;26;20002;-92
2024/04/17 01:38:51;;;;;;;2.92;0.77;;;;;;;12.67;100.00;97389.81;5471109;26;20006;-92
2024/04/17 01:41:20;;;;;;;5.13;0.98;;;;;;;12.54;100.00;97373.66;5483272;26;20009;-93
2024/04/17 01:43:46;;;;;;;3.50;0.80;;;;;;;12.67;100.00;97396.94;5477402;26;20016;-93
2024/04/17 01:46:11;;;;;;;4.15;1.02;;;;;;;12.09;100.00;97305.16;5466851;26;20006;-93
2024/04/17 01:48:37;;;;;;;6.65;0.80;;;;;;;12.62;100.00;97388.34;5479478;26;20006;-92
2024/04/17 01:51:04;;;;;;;2.90;0.63;;;;;;;12.06;100.00;97364.81;5472868;26;20002;-92
2024/04/17 01:53:29;;;;;;;3.70;0.80;;;;;;;12.05;100.00;97387.06;5467140;26;20006;-92
2024/04/17 01:55:56;;;;;;;1.92;0.50;;;;;;;12.17;100.00;97380.22;5473770;26;20761;-94
2024/04/17 01:58:25;;;;;;;1.25;0.52;;;;;;;12.19;100.00;97391.66;5474084;26;20009;-92
2024/04/17 02:00:51;;;;;;;2.45;0.63;;;;;;;11.63;100.00;97390.25;5470460;26;20014;-93
2024/04/17 02:03:17;;;;;;;2.92;0.88;;;;;;;11.31;100.00;97332.44;5477333;26;20006;-92
2024/04/17 02:05:42;;;;;;;3.20;0.40;;;;;;;11.62;100.00;97368.06;5473413;26;20008;-92
2024/04/17 02:08:10;;;;;;;5.00;0.60;;;;;;;11.54;100.00;97358.75;5477662;26;20008;-92
2024/04/17 02:10:36;;;;;;;3.92;1.15;;;;;;;11.34;100.00;97387.28;5468003;26;20002;-91
2024/04/17 02:13:02;;;;;;;1.33;0.68;;;;;;;11.26;100.00;97379.72;5471538;26;20454;-92
2024/04/17 02:15:31;;;;;;;3.17;1.00;;;;;;;11.23;100.00;97377.22;5469507;26;20006;-90
2024/04/17 02:17:57;;;;;;;7.30;0.82;;;;;;;10.55;100.00;97304.50;5464127;26;20006;-92
2024/04/17 02:20:23;;;;;;;1.85;0.73;;;;;;;11.17;100.00;97360.69;5454571;26;20020;-91
2024/04/17 02:22:50;;;;;;;5.85;0.70;;;;;;;10.96;100.00;97302.38;5470230;26;20009;-91
2024/04/17 02:25:16;;;;;;;3.08;0.50;;;;;;;11.46;100.00;97375.16;5475606;26;20016;-91
2024/04/17 02:27:42;;;;;;;10.55;1.02;;;;;;;11.02;100.00;97325.13;5495448;26;20002;-91
2024/04/17 02:30:09;;;;;;;2.25;0.70;;;;;;;11.00;100.00;97358.94;5455281;26;20013;-89
2024/04/17 02:32:38;;;;;;;4.97;0.40;;;;;;;11.30;100.00;97356.47;5448410;26;20007;-90
2024/04/17 02:35:05;;;;;;;5.00;0.90;;;;;;;11.38;100.00;97375.53;5490632;26;20001;-91
2024/04/17 02:37:31;;;;;;;3.38;0.77;;;;;;;10.37;100.00;97280.56;5497241;26;20005;-91
2024/04/17 02:39:57;;;;;;;1.50;0.50;;;;;;;10.54;100.00;97359.47;5466524;26;20002;-92
2024/04/17 02:42:23;;;;;;;1.88;0.50;;;;;;;10.67;100.00;97373.00;5449886;26;20922;-91
2024/04/17 02:44:49;;;;;;;3.40;1.17;;;;;;;10.37;100.00;97333.72;5497915;26;20003;-90
2024/04/17 02:47:15;;;;;;;7.20;0.75;;;;;;;10.14;100.00;97278.16;5468435;26;20012;-92
2024/04/17 02:49:43;;;;;;;4.15;0.95;;;;;;;10.85;100.00;97387.16;5469437;26;20051;-91
2024/04/17 02:52:09;;;;;;;3.50;0.63;;;;;;;10.73;100.00;97385.09;5459259;26;20055;-91
2024/04/17 02:54:35;;;;;;;5.28;0.80;;;;;;;10.20;100.00;97325.66;5463804;26;20030;-91
2024/04/17 02:57:01;;;;;;;1.70;0.60;;;;;;;10.57;100.00;97383.22;5462165;26;20474;-90
2024/04/17 02:59:27;;;;;;;3.45;1.10;;;;;;;10.76;100.00;97380.50;5471918;26;20020;-91
2024/04/17 03:01:54;;;;;;;1.27;0.40;;;;;;;10.87;100.00;97353.38;5448380;26;20003;-93
2024/04/17 03:04:20;;;;;;;3.08;0.95;;;;;;;10.73;100.00;97335.44;5468646;26;20382;-91
2024/04/17 03:06:49;;;;;;;1.42;0.40;;;;;;;10.31;100.00;97274.69;5477107;26;20006;-91
2024/04/17 03:09:15;;;;;;;3.30;0.82;;;;;;;10.48;100.00;97360.59;5470728;26;20460;-91
2024/04/17 03:11:41;;;;;;;2.40;0.60;;;;;;;10.46;100.00;97346.53;5517030;26;20005;-91
2024/04/17 03:14:07;;;;;;;1.92;0.50;;;;;;;10.52;100.00;97385.25;5467653;26;20067;-91
2024/04/17 03:16:33;;;;;;;1.65;0.57;;;;;;;10.28;100.00;97302.25;5475802;26;20002;-90
2024/04/17 03:18:59;;;;;;;1.48;0.40;;;;;;;10.81;100.00;97383.78;5471688;26;20081;-89
2024/04/17 03:21:25;;;;;;;1.80;0.60;;;;;;;10.78;100.00;97386.63;5468258;26;20012;-91
2024/04/17 03:23:54;;;;;;;2.13;0.30;;;;;;;10.32;100.00;97287.88;5467238;26;20014;-91
2024/04/17 03:26:21;;;;;;;6.88;0.73;;;;;;;9.94;100.00;97223.38;5479231;26;20005;-92
2024/04/17 03:28:47;;;;;;;1.75;0.60;;;;;;;10.64;100.00;97350.06;5468490;26;20006;-91
2024/04/17 03:31:13;;;;;;;2.10;1.13;;;;;;;10.77;100.00;97371.59;5467244;26;20417;-91
2024/04/17 03:33:39;;;;;;;5.00;0.82;;;;;;;10.39;100.00;97331.84;5475910;26;20011;-90
2024/04/17 03:36:05;;;;;;;0.57;0.52;;;;;;;10.26;100.00;97336.00;5473920;26;20021;-91
2024/04/17 03:38:31;;;;;;;2.28;0.57;;;;;;;10.28;100.00;97397.91;5502901;26;20015;-91
2024/04/17 03:41:00;;;;;;;3.10;0.80;;;;;;;10.04;100.00;97381.31;5466715;26;20006;-90
2024/04/17 03:43:26;;;;;;;1.65;0.50;;;;;;;9.84;100.00;97363.66;5469664;26;20020;-91
2024/04/17 03:45:52;;;;;;;1.73;0.80;;;;;;;10.08;100.00;97401.47;5464700;26;20465;-91
2024/04/17 03:48:18;;;;;;;2.60;0.70;;;;;;;9.46;100.00;97284.91;5482908;26;20017;-89
2024/04/17 03:50:44;;;;;;;3.58;0.60;;;;;;;9.79;100.00;97357.72;5473340;26;20006;-91
2024/04/17 03:53:10;;;;;;;3.35;0.70;;;;;;;9.95;100.00;97387.91;5508109;26;20014;-91
2024/04/17 03:55:36;;;;;;;2.30;0.70;;;;;;;9.73;100.00;97319.03;5477309;26;20001;-89
2024/04/17 03:58:04;;;;;;;0.82;0.50;;;;;;;10.11;100.00;97411.97;5465066;26;20002;-91
2024/04/17 04:00:30;;;;;;;4.97;0.98;;;;;;;9.64;100.00;97378.72;5472673;26;20059;-90
2024/04/17 04:02:56;;;;;;;4.57;0.47;;;;;;;9.58;100.00;97378.13;5467061;26;20354;-90
2024/04/17 04:05:24;;;;;;;1.05;0.60;;;;;;;9.77;100.00;97380.81;5477631;26;20013;-91
2024/04/17 04:07:50;;;;;;;4.30;0.80;;;;;;;9.76;100.00;97379.97;5475632;26;20055;-91
2024/04/17 04:10:16;;;;;;;1.42;0.57;;;;;;;9.66;100.00;97389.28;5485168;26;20014;-91
2024/04/17 04:12:42;;;;;;;2.83;0.70;;;;;;;9.76;100.00;97435.72;5482844;26;20014;-90
2024/04/17 04:15:10;;;;;;;4.00;0.60;;;;;;;9.73;100.00;97430.53;5493055;26;19998;-92
2024/04/17 04:17:36;;;;;;;4.43;0.93;;;;;;;9.21;100.00;97348.78;5481581;26;19998;-91
2024/04/17 04:20:03;;;;;;;6.40;0.70;;;;;;;9.51;100.00;97411.19;5472763;26;20034;-91
2024/04/17 04:22:29;;;;;;;2.35;0.88;;;;;;;9.54;100.00;97419.00;5481494;26;20458;-91
2024/04/17 04:24:55;;;;;;;3.97;0.73;;;;;;;8.87;100.00;97349.44;5491522;26;20031;-91
2024/04/17 04:27:21;;;;;;;1.75;0.50;;;;;;;9.55;100.00;97434.88;5479982;26;20457;-92
2024/04/17 04:29:47;;;;;;;0.93;0.43;;;;;;;9.45;100.00;97429.13;5481621;26;20012;-90
2024/04/17 04:32:15;;;;;;;1.67;1.10;;;;;;;8.62;100.00;97318.66;5456760;26;20002;-92
2024/04/17 04:34:41;;;;;;;0.95;0.52;;;;;;;8.74;100.00;97314.63;5478249;26;20042;-91
2024/04/17 04:37:07;;;;;;;3.20;0.50;;;;;;;9.61;100.00;97428.44;5464917;26;20407;-90
2024/04/17 04:39:33;;;;;;;6.93;0.70;;;;;;;9.50;100.00;97367.88;5469794;26;20005;-92
2024/04/17 04:41:59;;;;;;;0.90;0.45;;;;;;;9.90;100.00;97428.91;5483366;26;20013;-91
2024/04/17 04:44:26;;;;;;;3.33;0.82;;;;;;;9.71;100.00;97378.44;5468376;26;19998;-90
2024/04/17 04:46:56;;;;;;;1.38;0.85;;;;;;;9.34;100.00;97366.84;5465541;26;20002;-92
2024/04/17 04:49:25;;;;;;;2.03;0.60;;;;;;;9.65;100.00;97412.31;5465757;26;20049;-93
2024/04/17 04:51:51;;;;;;;3.33;0.63;;;;;;;9.74;100.00;97440.22;5465107;26;20005;-92
2024/04/17 04:54:17;;;;;;;6.68;1.02;;;;;;;9.62;100.00;97446.06;5469007;26;20074;-91
2024/04/17 04:56:44;;;;;;;3.42;0.88;;;;;;;9.43;100.00;97379.69;5475232;26;19998;-91
2024/04/17 04:59:10;;;;;;;2.03;0.70;;;;;;;9.76;100.00;97418.88;5476641;26;20002;-91
2024/04/17 05:01:36;;;;;;;4.43;1.00;;;;;;;10.03;100.00;97446.84;5463819;26;20079;-91
2024/04/17 05:04:02;;;;;;;3.85;0.80;;;;;;;10.19;100.00;97448.78;5464026;26;20001;-90
2024/04/17 05:06:30;;;;;;;1.30;0.63;;;;;;;10.06;100.00;97422.81;5469474;26;20020;-91
2024/04/17 05:08:56;;;;;;;0.95;0.47;;;;;;;9.74;100.00;97365.91;5476584;26;20017;-92
2024/04/17 05:11:22;;;;;;;1.33;0.50;;;;;;;9.28;100.00;97306.94;5470246;26;20006;-91
2024/04/17 05:13:48;;;;;;;1.92;1.02;;;;;;;10.13;100.00;97462.34;5459235;26;20382;-91
2024/04/17 05:16:14;;;;;;;3.08;0.65;;;;;;;9.70;100.00;97412.09;5462120;26;20096;-90
2024/04/17 05:18:40;;;;;;;3.42;0.77;;;;;;;9.87;100.00;97437.88;5471626;26;20017;-91
2024/04/17 05:21:06;;;;;;;1.65;0.82;;;;;;;9.91;100.00;97431.50;5496025;26;20058;-92
2024/04/17 05:23:35;;;;;;;4.68;1.15;;;;;;;10.03;100.00;97461.94;5465714;26;20006;-93
2024/04/17 05:26:01;;;;;;;3.25;0.45;;;;;;;9.90;100.00;97453.66;5470005;26;20017;-91
2024/04/17 05:28:27;;;;;;;2.22;0.63;;;;;;;9.12;100.00;97316.53;5469493;26;20001;-88
2024/04/17 05:30:56;;;;;;;1.17;0.80;;;;;;;9.96;100.00;97450.72;5501712;26;20018;-90
2024/04/17 05:33:22;;;;;;;3.50;0.85;;;;;;;9.66;100.00;97352.97;5467041;26;20021;-90
2024/04/17 05:35:48;;;;;;;0.82;0.43;;;;;;;10.45;100.00;97466.19;5509702;26;20022;-90
2024/04/17 05:38:14;;;;;;;0.70;0.45;;;;;;;10.25;100.00;97438.72;5469013;26;20006;-91
2024/04/17 05:40:47;;;;;;;2.80;0.60;;;;;;;10.40;100.00;97466.41;5465072;26;20806;-92
2024/04/17 05:43:15;;;;;;;1.33;0.63;;;;;;;10.59;100.00;97439.81;5474871;26;20009;-92
2024/04/17 05:45:42;;;;;;;3.20;0.80;;;;;;;10.70;100.00;97473.88;5466652;26;19998;-90
2024/04/17 05:48:07;;;;;;;4.13;0.77;;;;;;;10.87;100.00;97473.91;5470369;26;20859;-92
2024/04/17 05:50:33;;;;;;;1.00;0.50;;;;;;;11.15;100.00;97479.69;5465130;26;20013;-90
2024/04/17 05:52:59;;;;;;;6.13;0.77;;;;;;;11.02;100.00;97420.91;5474974;26;20005;-91
2024/04/17 05:55:26;;;;;;;1.67;0.63;;;;;;;11.39;100.00;97480.22;5474891;26;20006;-92
2024/04/17 05:57:54;;;;;;;2.53;0.70;;;;;;;11.48;100.00;97479.75;5475426;26;20006;-93
2024/04/17 06:00:20;;;;;;;4.32;0.65;;;;;;;11.83;100.00;97501.03;5472259;26;20037;-92
2024/04/17 06:02:46;;;;;;;1.98;0.45;;;;;;;11.30;100.00;97493.06;5460978;26;20010;-91
2024/04/17 06:05:13;;;;;;;3.85;0.80;;;;;;;11.35;100.00;97499.94;5472058;26;20450;-90
2024/04/17 06:07:38;;;;;;;3.13;1.30;;;;;;;11.66;100.00;97492.09;5462474;26;20002;-91
2024/04/17 06:10:05;;;;;;;7.18;0.63;;;;;;;11.71;100.00;97484.75;5460648;26;20544;-90
2024/04/17 06:12:31;;;;;;;2.65;0.55;;;;;;;12.14;100.00;97494.94;5469413;26;20017;-90
2024/04/17 06:15:00;;;;;;;2.45;1.45;;;;;;;12.18;100.00;97482.31;5484850;26;20353;-91
2024/04/17 06:17:26;;;;;;;3.50;0.75;;;;;;;12.23;100.00;97475.81;5471631;26;20006;-91
2024/04/17 06:19:52;;;;;;;0.73;0.40;;;;;;;12.19;100.00;97473.38;5474444;26;20458;-91
2024/04/17 06:22:19;;;;;;;1.52;0.80;;;;;;;11.85;100.00;97469.84;5499743;26;20017;-93
2024/04/17 06:24:45;;;;;;;0.90;0.40;;;;;;;12.01;100.00;97508.06;5479457;26;20024;-90
2024/04/17 06:27:11;;;;;;;1.35;0.43;;;;;;;11.90;100.00;97489.13;5474376;26;20006;-91
2024/04/17 06:29:37;;;;;;;1.27;0.45;;;;;;;11.99;98.96;97462.03;5500197;26;20025;-92
2024/04/17 06:32:06;;;;;;;0.98;0.50;;;;;;;12.32;98.77;97469.13;5456990;26;19999;-91
2024/04/17 06:34:32;;;;;;;3.30;0.50;;;;;;;12.76;99.56;97508.44;5486049;26;20068;-91
2024/04/17 06:36:58;;;;;;;2.85;0.68;;;;;;;12.89;98.22;97505.94;5479280;26;20006;-92
2024/04/17 06:39:24;;;;;;;0.75;0.50;;;;;;;12.81;97.57;97455.69;5478462;26;19998;-92
2024/04/17 06:41:50;;;;;;;3.47;0.82;;;;;;;13.38;95.09;97459.56;5473606;26;20020;-92
2024/04/17 06:44:16;;;;;;;1.65;0.55;;;;;;;12.91;90.40;97430.19;5480953;26;20032;-92
2024/04/17 06:46:42;;;;;;;2.13;0.47;;;;;;;13.05;91.68;97418.72;5469195;26;20017;-93
2024/04/17 06:49:12;;;;;;;1.50;0.30;;;;;;;12.69;89.80;97421.72;5466601;26;20002;-92
2024/04/17 06:51:38;;;;;;;2.30;0.40;;;;;;;13.12;88.76;97437.94;5467776;26;20020;-92
2024/04/17 06:54:04;;;;;;;2.53;0.70;;;;;;;12.01;87.85;97385.50;5478179;26;20447;-91
2024/04/17 06:56:30;;;;;;;0.57;0.50;;;;;;;13.06;88.17;97462.28;5477693;26;20018;-91
2024/04/17 06:58:56;;;;;;;2.20;0.50;;;;;;;12.71;89.64;97422.50;5472855;26;20070;-92
2024/04/17 07:01:22;;;;;;;1.90;0.80;;;;;;;13.13;86.78;97461.84;5462682;26;20043;-92
2024/04/17 07:03:48;;;;;;;2.28;0.77;;;;;;;13.37;82.33;97500.56;5477519;26;20438;-93
2024/04/17 07:06:17;;;;;;;1.70;0.40;;;;;;;13.73;80.86;97489.53;5466228;26;20017;-93
2024/04/17 07:08:43;;;;;;;2.97;0.60;;;;;;;13.94;79.92;97479.31;5478178;26;20009;-91
2024/04/17 07:11:09;;;;;;;1.40;0.40;;;;;;;13.77;77.00;97477.69;5467041;26;20081;-92
2024/04/17 07:13:35;;;;;;;5.20;0.70;;;;;;;13.47;80.00;97499.94;5471919;26;20077;-92
2024/04/17 07:16:01;;;;;;;1.30;0.50;;;;;;;13.97;77.61;97488.03;5468593;26;20042;-91
2024/04/17 07:18:27;;;;;;;1.75;0.93;;;;;;;13.19;80.22;97492.66;5510774;26;20077;-91
2024/04/17 07:20:53;;;;;;;2.92;0.93;;;;;;;13.57;80.29;97486.88;5502377;26;20005;-91
2024/04/17 07:23:22;;;;;;;2.53;0.50;;;;;;;13.97;78.33;97489.84;5465998;26;20005;-91
2024/04/17 07:25:49;;;;;;;6.05;1.00;;;;;;;14.11;76.07;97481.81;5476155;26;20006;-90
2024/04/17 07:28:15;;;;;;;2.60;0.55;;;;;;;14.07;76.60;97485.63;5468873;26;20014;-94
2024/04/17 07:30:41;;;;;;;3.35;0.60;;;;;;;13.94;76.63;97482.88;5462238;26;20002;-94
2024/04/17 07:33:07;;;;;;;4.00;0.60;;;;;;;13.18;79.27;97466.91;5461692;26;20020;-91
2024/04/17 07:35:33;;;;;;;2.30;0.52;;;;;;;13.35;78.29;97460.59;5474660;26;20017;-90
2024/04/17 07:37:59;;;;;;;1.77;0.40;;;;;;;13.35;80.40;97458.78;5465401;26;20005;-93
2024/04/17 07:40:28;;;;;;;2.50;0.50;;;;;;;13.90;71.01;97480.47;5472728;26;20009;-91
2024/04/17 07:42:54;;;;;;;1.17;0.70;;;;;;;13.60;75.08;97481.38;5475047;26;20095;-92
2024/04/17 07:45:21;;;;;;;1.85;0.65;;;;;;;14.23;69.54;97477.53;5461212;26;22245;-92
2024/04/17 07:47:47;;;;;;;1.27;0.45;;;;;;;14.18;69.19;97448.41;5469594;26;20006;-92
2024/04/17 07:50:13;;;;;;;2.13;0.45;;;;;;;14.84;67.15;97475.47;5473526;26;20006;-91
2024/04/17 07:52:39;;;;;;;0.68;0.43;;;;;;;14.96;69.09;97421.13;5465229;26;20862;-94
2024/04/17 07:55:05;;;;;;;2.20;0.43;;;;;;;15.51;67.52;97480.00;5470008;26;20518;-94
2024/04/17 07:57:34;;;;;;;1.25;0.73;;;;;;;15.30;65.74;97442.09;5473978;26;20017;-91
2024/04/17 08:00:00;;;;;;;1.35;0.40;;;;;;;14.33;63.52;97357.47;5468712;26;20081;-90
2024/04/17 08:02:26;;;;;;;1.73;0.60;;;;;;;14.69;70.98;97461.25;5467823;26;20133;-94
2024/04/17 08:04:52;;;;;;;3.60;0.35;;;;;;;15.39;66.57;97482.50;5462494;26;20099;-91
2024/04/17 08:07:18;;;;;;;5.07;0.80;;;;;;;14.36;68.74;97449.06;5460980;26;20900;-91
2024/04/17 08:09:44;;;;;;;0.80;0.50;;;;;;;14.75;67.29;97482.28;5470021;26;20009;-90
2024/04/17 08:12:10;;;;;;;1.08;0.35;;;;;;;14.59;68.21;97476.16;5508025;26;20014;-93
2024/04/17 08:14:38;;;;;;;2.33;0.43;;;;;;;14.58;68.73;97488.69;5465168;26;20003;-92
2024/04/17 08:17:04;;;;;;;0.77;0.68;;;;;;;15.51;69.48;97485.34;5471812;26;20025;-92
2024/04/17 08:19:30;;;;;;;0.63;0.35;;;;;;;15.91;61.70;97486.16;5459316;26;20047;-93
2024/04/17 08:21:56;;;;;;;1.90;0.45;;;;;;;15.69;61.69;97457.28;5467518;26;20002;-93
2024/04/17 08:24:22;;;;;;;1.02;0.35;;;;;;;15.96;59.42;97425.06;5469804;26;20445;-93
2024/04/17 08:26:48;;;;;;;1.60;0.40;;;;;;;16.07;57.32;97469.00;5471157;26;20021;-93
2024/04/17 08:29:14;;;;;;;1.20;0.38;;;;;;;16.49;56.34;97473.16;5465578;26;20024;-93
2024/04/17 08:31:43;;;;;;;2.08;0.40;;;;;;;16.42;60.07;97480.78;5454321;26;20016;-91
2024/04/17 08:34:09;;;;;;;0.73;0.43;;;;;;;15.17;65.81;97385.84;5468666;26;20009;-92
2024/04/17 08:36:35;;;;;;;1.48;0.50;;;;;;;16.29;59.79;97479.09;5469627;26;20010;-92
2024/04/17 08:39:01;;;;;;;1.70;0.98;;;;;;;15.80;58.78;97409.19;5471975;26;20390;-90
2024/04/17 08:41:28;;;;;;;2.45;0.93;;;;;;;16.49;59.11;97475.00;5504555;26;20006;-93
2024/04/17 08:43:59;;;;;;;0.93;0.50;;;;;;;15.73;59.12;97472.22;5468628;26;20006;-91
2024/04/17 08:46:27;;;;;;;6.05;2.17;;;;;;;15.33;60.19;97444.56;5467601;26;20103;-92
2024/04/17 08:48:56;;;;;;;0.77;0.55;;;;;;;15.34;59.53;97460.53;5478721;26;20013;-89
2024/04/17 08:51:24;;;;;;;1.70;0.22;;;;;;;14.83;60.05;97446.13;5473180;26;20022;-89
2024/04/17 08:53:51;;;;;;;2.28;1.25;;;;;;;15.14;61.92;97444.97;5481435;26;20005;-92
2024/04/17 08:56:17;;;;;;;2.67;0.47;;;;;;;14.70;59.56;97443.38;5475127;26;20005;-91
2024/04/17 08:58:45;;;;;;;4.30;0.43;;;;;;;15.47;58.42;97443.66;5515848;26;20065;-91
2024/04/17 09:01:12;;;;;;;1.05;0.50;;;;;;;16.51;57.45;97471.22;5476402;26;20043;-92
2024/04/17 09:03:42;;;;;;;5.28;1.50;;;;;;;16.62;58.05;97478.50;5468925;26;20025;-93
2024/04/17 09:06:12;;;;;;;0.43;0.35;;;;;;;16.26;54.25;97460.53;5471193;26;20006;-90
2024/04/17 09:08:39;;;;;;;7.38;2.15;;;;;;;16.15;56.47;97341.44;5473737;26;20014;-93
2024/04/17 09:11:08;;;;;;;6.80;2.40;;;;;;;16.75;43.79;97473.97;5470549;26;20013;-92
2024/04/17 09:13:34;;;;;;;5.72;2.53;;;;;;;17.22;43.43;97466.09;5475152;26;20001;-88
2024/04/17 09:15:59;;;;;;;3.13;1.40;;;;;;;17.25;40.19;97455.94;5469146;26;20022;-92
2024/04/17 09:18:26;;;;;;;1.42;0.35;;;;;;;15.87;42.48;97401.56;5476707;26;20012;-89
2024/04/17 09:20:54;;;;;;;0.98;0.50;;;;;;;16.74;44.00;97466.88;5472363;26;20024;-91
2024/04/17 09:23:23;;;;;;;0.30;0.30;;;;;;;16.69;45.40;97425.22;5470388;26;20010;-92
2024/04/17 09:25:49;;;;;;;1.85;0.50;;;;;;;16.76;42.36;97469.44;5469846;26;20024;-91
2024/04/17 09:28:15;;;;;;;1.40;0.43;;;;;;;17.03;42.09;97475.50;5470246;26;20013;-93
2024/04/17 09:30:41;;;;;;;1.40;0.28;;;;;;;16.93;42.82;97466.41;5468374;26;20017;-93
2024/04/17 09:33:10;;;;;;;1.25;0.30;;;;;;;16.96;41.11;97465.34;5475832;26;20008;-91
2024/04/17 09:35:37;;;;;;;1.17;0.30;;;;;;;16.90;42.03;97351.19;5462790;26;20092;-93
2024/04/17 09:38:10;;;;;;;0.30;0.30;;;;;;;17.10;42.95;97462.47;5466448;26;20081;-92
2024/04/17 09:40:42;;;;;;;1.65;0.40;;;;;;;17.53;38.85;97447.63;5475161;26;20002;-92
2024/04/17 09:43:09;;;;;;;0.30;0.30;;;;;;;16.45;38.89;97377.75;5494827;26;20005;-92
2024/04/17 09:45:36;;;;;;;0.45;0.43;;;;;;;17.72;40.05;97477.50;5473028;26;20457;-93
2024/04/17 09:48:05;;;;;;;0.68;0.30;;;;;;;16.51;38.35;97393.41;5479176;26;20010;-93
2024/04/17 09:50:33;;;;;;;;;;;;;;;17.85;36.35;97451.41;5468973;26;20004;-93
2024/04/17 09:53:01;;;;;;;2.70;0.77;;;;;;;17.06;37.49;97461.00;5476335;26;19967;-89
2024/04/17 09:55:29;;;;;;;2.30;0.30;;;;;;;17.39;37.98;97473.75;5468183;26;20013;-93
2024/04/17 09:58:00;;;;;;;1.85;0.40;;;;;;;16.61;37.97;97348.84;5467319;26;20005;-94
2024/04/17 10:00:28;;;;;;;0.30;0.30;;;;;;;17.25;37.73;97412.13;5482228;26;19997;-94
2024/04/17 10:02:59;;;;;;;0.73;0.28;;;;;;;17.66;42.00;97465.38;5470666;26;20010;-93
2024/04/17 10:05:27;;;;;;;0.30;0.20;;;;;;;17.43;40.13;97388.34;5460251;26;20002;-89
2024/04/17 10:07:53;;;;;;;0.68;0.40;;;;;;;17.12;39.43;97346.88;5511569;26;20005;-92
2024/04/17 10:10:20;;;;;;;3.65;0.43;;;;;;;17.01;39.19;97414.81;5467546;26;20014;-92
2024/04/17 10:12:49;;;;;;;0.38;0.30;;;;;;;16.82;40.23;97383.97;5473346;26;20009;-94
2024/04/17 10:15:18;;;;;;;1.45;0.50;;;;;;;17.79;39.83;97476.06;5482564;26;20016;-92
2024/04/17 10:17:45;;;;;;;0.95;0.20;;;;;;;17.91;39.50;97470.72;5477811;26;20017;-94
2024/04/17 10:20:26;;;;;;;0.82;0.30;;;;;;;17.56;42.33;97460.84;5473139;26;20010;-95
2024/04/17 10:23:05;;;;;;;0.75;0.30;;;;;;;17.54;41.26;97455.56;5468105;26;20002;-93
2024/04/17 10:25:32;;;;;;;1.80;0.32;;;;;;;18.03;40.90;97469.78;5478226;26;20020;-93
2024/04/17 10:28:03;;;;;;;0.57;0.32;;;;;;;17.39;41.02;97443.31;5471616;26;20002;-91
2024/04/17 10:30:37;;;;;;;4.45;0.38;;;;;;;17.10;44.54;97465.16;5461132;26;20912;-92
2024/04/17 10:33:04;;;;;;;0.98;0.40;;;;;;;17.86;41.98;97463.03;5516854;26;20017;-90
2024/04/17 10:35:32;;;;;;;1.52;0.38;;;;;;;17.22;40.46;97377.44;5477216;26;20002;-89
2024/04/17 10:38:05;;;;;;;1.80;0.98;;;;;;;17.20;39.62;97403.56;5475097;26;20361;-87
2024/04/17 10:40:31;;;;;;;2.13;0.68;;;;;;;17.84;39.61;97463.13;5466575;26;20136;-91
2024/04/17 10:42:57;;;;;;;0.77;0.22;;;;;;;17.64;39.78;97450.34;5477724;26;20008;-90
2024/04/17 10:45:24;;;;;;;0.22;0.20;;;;;;;17.88;39.82;97444.94;5468381;26;20017;-92
2024/04/17 10:47:59;;;;;;;1.77;0.30;;;;;;;18.26;38.55;97443.78;5473518;26;20024;-92
2024/04/17 10:50:26;;;;;;;1.20;0.52;;;;;;;18.52;37.82;97403.13;5467275;26;20017;-94
2024/04/17 10:52:52;;;;;;;0.38;0.28;;;;;;;18.51;37.38;97366.41;5479339;26;20001;-93
2024/04/17 10:55:20;;;;;;;0.88;0.40;;;;;;;18.46;37.45;97338.03;5475889;26;20002;-92
2024/04/17 10:57:46;;;;;;;1.70;0.40;;;;;;;17.57;39.72;97376.56;5470205;26;20034;-89
2024/04/17 11:00:12;;;;;;;1.00;1.00;;;;;;;18.18;40.85;97441.69;5495208;26;20363;-92
2024/04/17 11:02:38;;;;;;;1.48;0.60;;;;;;;18.57;37.56;97438.63;5472836;26;20016;-93
2024/04/17 11:05:07;;;;;;;0.45;0.35;;;;;;;18.70;37.58;97411.56;5460156;26;20006;-94
2024/04/17 11:07:33;;;;;;;0.65;0.35;;;;;;;19.10;36.71;97422.59;5482011;26;20002;-92
2024/04/17 11:10:00;;;;;;;0.73;0.30;;;;;;;18.95;38.10;97408.56;5478133;26;20027;-95
2024/04/17 11:12:26;;;;;;;0.85;0.40;;;;;;;18.96;36.70;97369.03;5472930;26;20006;-90
2024/04/17 11:14:59;;;;;;;0.55;0.38;;;;;;;18.63;37.87;97403.97;5481272;26;20071;-92
2024/04/17 11:17:25;;;;;;;1.15;0.50;;;;;;;18.41;38.02;97420.13;5508647;26;20029;-93
2024/04/17 11:19:51;;;;;;;0.75;0.75;;;;;;;18.77;36.44;97365.13;5486327;26;20695;-91
2024/04/17 11:22:20;;;;;;;1.55;0.30;;;;;;;18.91;37.16;97425.97;5472998;26;20006;-90
2024/04/17 11:24:47;;;;;;;0.30;0.30;;;;;;;18.69;38.44;97399.91;5468775;26;20054;-89
2024/04/17 11:27:15;;;;;;;0.30;0.30;;;;;;;18.33;37.21;97328.41;5515015;26;20027;-91